Cobb County-Mc Collum Field
KRYY : now visible

Airfield :











YOU CAN JOIN US ON...

 
LOGIN :

Register | Disclaimer

   EN    FR    IT 

 









Legend :    VFR   Marginal VFR   IFR   Intensive IFR   Very Intensive IFR
Visi :
Ceiling :
>= 8 km
>= 3000ft
5 to 8 km
1000 to 3000 ft
1500m to 5 km
500 to 1000 ft
800 to 1500m
200 to 500 ft
< 800m
< 200 ft
Symbols :   Thunderstorms  Fog  Heavy snow  Heavy precipitations  Wind > 20 kt






- Airport Elevation : 1040 ft


KRYY - Cobb County-Mc Collum Field

CURRENT METAR :
  • 100650Z AUTO VRB05KT 10SM CLR 15/02 A2982 RMK AO2 SLP820 T01500022 PNO $

EXPIRED METARs :
  • 100550Z AUTO VRB06KT 10SM CLR 15/04 A2984 RMK AO2 SLP825 6//// T01500044 10206 20150 50001 PNO $
  • 100450Z AUTO 29008G15KT 10SM CLR 16/04 A2985 RMK AO2 SLP829 T01610044 PNO $

TAF KRYY
Valid from the 10 at 06:00 until the 11 at 06:00 UTC


100520Z 1006/1106 29009G16KT P6SM BKN250
FM100900 31012G22KT P6SM BKN250
FM101200 32016G26KT P6SM SCT250
FM101900 32012G18KT P6SM SKC
FM110100 33006KT P6SM SKC



MET'MAP, your aeronautical weather chart ! - Copyright ORBIFLY December 2007 - Disclaimer

ORBIFLY MET'MAP TEAM :

Programming & Development : Alexandra Zaïnal
Concept & original design : Baudouin d'Aumeries
Assistance for programming : Marc-Olivier Méhu
Technical & hardware support : Manuel Goepfert

Contact : metmap@orbifly.com




SOURCES & CREDITS :

   NOAA       Earth
Advisory